Joel Krafth

Olheiro-Chefe - IF Elfsborg
17 Jul 2027
Sábado
Processo

Personalidade

Adaptabilidade (7) Ambição (8) Controvérsia (8) Lealdade (2) Pressão (11) Profissionalismo (15) Espírito Esportivo (1) Temperamento (6)

Perfil

Estilo de Treinamento Democrático
Licença Continental A
Determinação 9
Gestão de Pessoas 8
Motivação 4
Disciplina 10
Satisfação no Trabalho
99%
Fadiga
0%
Função Olheiro-Chefe
Salário 43.0K p/s
Contrato 14.03.2028

Desempenho

Comportamento Bom
Eficácia do Treinamento
33%
Desenvolvimento do Jogador
50%
Prevenção de Lesões
50%
Implementação Tática
40%

Eventos Recentes

Participou de uma reunião de recrutamento agora
Participou de uma reunião de recrutamento agora
Recomendou um alvo de transferência agora
Recomendou um alvo de transferência agora
Participou de uma reunião de recrutamento agora
Participou de uma reunião de recrutamento agora
Apresentou um dossiê à direção agora
Observou uma partida 7d atrás

Monitorando agora

117
Jogador Clube Status Habilidade Confiança Observado Última observação Último voto
Angelo Gattermayer Randers Negociando 120 / 122 66% 1 16.07.2027 Mais informações
Lander Astiazarán Real Sociedad Ativo 107 / 118 40% 1 12.03.2027 -
Alphadjo Cissé Pisa Ativo 131 / 120 40% 1 12.03.2027 -
Jeon Jin-Woo Sheffield Wednesday Ativo 134 / 126 40% 1 02.03.2027 -
Pelle Mattsson Norwich City Ativo 122 / 121 40% 1 22.02.2027 -
Dara O'Shea Ipswich Town Ativo 145 / 127 40% 1 22.02.2027 -
Josh Tymon Swansea City Ativo 130 / 125 40% 1 15.02.2027 -
Shea Charles Southampton Ativo 132 / 138 40% 1 15.02.2027 -
Christian Krasnodar Ativo 132 / 140 40% 2 06.02.2027 -
Jacob Greaves Ipswich Town Ativo 135 / 126 40% 1 06.02.2027 -
Caio Vidal FC Copenhagen Negociando 128 / 129 63% 1 01.02.2027 Aprovar
Konstantin Tyukavin Arsenal Ativo 132 / 133 66% 1 01.02.2027 Aprovar
Ethan Pye Stockport County Ativo 127 / 117 40% 1 31.01.2027 -
Armstrong Oko-Flex Levski Ativo 126 / 114 40% 2 25.01.2027 -
Luther Tau SuperSport United Ativo 98 / 118 40% 5 24.01.2027 -
Jens Odgaard Bologna Ativo 138 / 148 40% 1 24.01.2027 -
Amin Sarr Hellas Verona Ativo 120 / 136 40% 2 23.01.2027 -
Florentino Luís Ipswich Town Ativo 149 / 139 40% 1 23.01.2027 Mais informações
Rumarn Burrell Queens Park Rangers Ativo 125 / 121 40% 1 21.01.2027 -
Patrick Agyemang Derby County Ativo 123 / 131 40% 2 19.01.2027 -
Mathias Jørgensen Blackburn Rovers Ativo 111 / 114 40% 2 18.01.2027 -
Mihailo Ivanović Millwall Ativo 113 / 128 40% 1 15.01.2027 -
Ammar Ramadan DAC Dunajska Streda Ativo 131 / 115 40% 2 14.01.2027 -
Joe Gelhardt Hull City Ativo 124 / 134 40% 1 12.01.2027 -
Sead Hakšabanović Malmo FF Ativo 132 / 130 40% 12 11.01.2027 -
Adam Idah Swansea City Ativo 129 / 130 40% 2 10.01.2027 -
Jeffrey Adjei Wa All Stars Ativo 94 / 79 40% 1 10.01.2027 -
Aidomo Emakhu Oxford United Ativo 125 / 114 40% 1 09.01.2027 -
Yousef Salech Cardiff City Ativo 128 / 126 40% 3 05.01.2027 -
Sindre Walle Egeli Nottingham Forest Ativo 130 / 140 40% 1 05.01.2027 -
Tyrese Campbell Sheffield United Ativo 124 / 128 40% 2 03.01.2027 -
Aune Heggebø West Bromwich Albion Ativo 124 / 136 40% 2 02.01.2027 -
Jens Petter Hauge Bodo/Glimt Ativo 134 / 132 40% 2 01.01.2027 -
Victor Torp Coventry City Ativo 126 / 130 40% 1 01.01.2027 -
Zeidane Inoussa Swansea City Ativo 128 / 115 40% 1 31.12.2026 -
Jack McGlynn Stoke City Ativo 124 / 138 40% 1 28.12.2026 -
Ronald Swansea City Ativo 121 / 122 40% 2 27.12.2026 -
Reda Khadra Qarabag Ativo 143 / 121 40% 1 27.12.2026 -
Robert Mizo Aswan Ativo 112 / 113 40% 1 25.12.2026 -
Ola Brynhildsen Bodo/Glimt Ativo 125 / 117 40% 1 24.12.2026 -
Cian Ashford Cardiff City Ativo 121 / 111 40% 2 22.12.2026 -
Richard Koné Queens Park Rangers Ativo 126 / 117 40% 1 22.12.2026 -
Max Bird Birmingham Ativo 133 / 138 40% 1 21.12.2026 -
Loum Tchaouna Coventry City Ativo 145 / 146 40% 1 20.12.2026 -
Diego García Malmo FF Ativo 127 / 130 40% 3 18.12.2026 -
Mathias Kvistgaarden Norwich City Ativo 129 / 129 40% 1 18.12.2026 -
Finn Azaz Southampton Ativo 124 / 118 40% 1 18.12.2026 -
Claudy M'Buyi Rapid Wien Ativo 120 / 113 40% 3 16.12.2026 -
Jovon Makama Norwich City Ativo 130 / 117 40% 1 15.12.2026 -
Ronaldo Vásquez Sumgayit Ativo 108 / 114 40% 1 14.12.2026 -
Kenan Dervišagić Floriana Ativo 108 / 91 40% 1 10.12.2026 -
Matteo Pérez Vinlöf Dinamo Zagreb Ativo 129 / 137 40% 2 06.12.2026 -
Mduduzi Shabalala Kaizer Chiefs Ativo 113 / 117 40% 1 06.12.2026 -
Relebohile Mofokeng Orlando Pirates Ativo 110 / 130 40% 1 05.12.2026 Mais informações
Nazar Voloshyn Dynamo Kyiv Ativo 134 / 134 40% 2 03.12.2026 -
Camilo Durán Bloemfontein Celtic Ativo 137 / 110 40% 5 01.12.2026 -
Suleiman Camara Slovan Bratislava Ativo 120 / 122 40% 1 01.12.2026 -
Troy Parrott Betis Ativo 127 / 145 40% 3 29.11.2026 -
Denzel Jubitana Neftchi Ativo 134 / 131 40% 1 28.11.2026 -
Kristian Strømland Lien Djurgarden Ativo 122 / 127 40% 3 26.11.2026 -
Andile Manyama Ajax Cape Town Ativo 121 / 109 40% 1 25.11.2026 -
Bojan Radulović Huddersfield Town Ativo 114 / 121 40% 1 25.11.2026 -
Joel Asoro Apollon Ativo 126 / 105 40% 2 24.11.2026 -
Amin Boudri Los Angeles Football Club Ativo 116 / 123 40% 1 23.11.2026 -
Jacques Siwe Rubin Ativo 114 / 121 40% 1 23.11.2026 -
Wandile Duba Maritzburg United Ativo 95 / 114 40% 1 22.11.2026 -
Kelvin Yeboah Minnesota United FC Ativo 113 / 138 40% 4 21.11.2026 -
Ville Nilsson Fjolnir Ativo 65 / 67 40% 2 17.11.2026 -
Cheikh Sabaly Vancouver Whitecaps Ativo 132 / 113 40% 3 16.11.2026 -
Ştefan Baiaram Universitatea Craiova Ativo 117 / 128 40% 1 16.11.2026 -
Marin Benko Zadar Ativo 122 / 134 40% 1 13.11.2026 -
Markus Karlsson Hammarby Ativo 130 / 125 40% 2 12.11.2026 -
Emil Ceïde Rosenborg Ativo 125 / 129 40% 2 09.11.2026 -
Adrian Svanbäck BK Hacken Ativo 109 / 122 40% 2 09.11.2026 -
Montader Madjed Hammarby Ativo 108 / 116 40% 1 08.11.2026 -
Claudiu Ratiu Astra Ativo 141 / 138 40% 1 04.11.2026 -
Magnus Lankhof Dahlby Stabaek Ativo 111 / 106 40% 1 31.10.2026 -
Duncan McGuire Houston Dynamo Ativo 128 / 114 40% 1 31.10.2026 -
Adam Akimey Helsingborg Ativo 95 / 109 40% 2 30.10.2026 -
Kolbeinn Þórðarson IFK Goteborg Ativo 104 / 121 40% 1 30.10.2026 -
Axel Kouamé Atvidaberg Ativo 113 / 120 40% 2 27.10.2026 -
Liel Abada Charlotte Football Club Ativo 126 / 133 40% 3 27.10.2026 -
Nikolaj Möller Sandefjord Ativo 100 / 106 40% 2 27.10.2026 -
Ahmed Qasem Nashville SC Ativo 111 / 113 40% 1 27.10.2026 -
Johan Hove AIK Ativo 107 / 121 40% 2 26.10.2026 -
Jesus Ferreira Seattle Sounders Ativo 117 / 141 40% 1 26.10.2026 -
Elias Hoff Melkersen Stromsgodset Ativo 107 / 119 40% 1 23.10.2026 -
Agustín Anello Philadelphia Union Ativo 129 / 132 40% 1 22.10.2026 -
Iván Angulo Orlando City Ativo 131 / 114 40% 2 21.10.2026 -
Antonio Yakoub Orebro Ativo 104 / 102 40% 1 21.10.2026 -
Paul Ngongo Aalesund Ativo 111 / 104 40% 1 21.10.2026 -
Indiana Vassilev Philadelphia Union Ativo 128 / 119 40% 1 19.10.2026 -
Martín Ojeda Orlando City Ativo 141 / 129 40% 2 18.10.2026 -
Djordje Mihailović Toronto FC Ativo 129 / 136 40% 1 13.10.2026 -
Etiosa Ighodaro Kaizer Chiefs Ativo 99 / 95 40% 1 13.10.2026 -
Seedy Jatta Sturm Graz Ativo 122 / 124 40% 2 12.10.2026 -
Áron Csongvai AIK Ativo 118 / 121 40% 2 11.10.2026 -
Mayckel Lahdo Malmo FF Ativo 119 / 130 40% 1 11.10.2026 Mais informações
Alexander Warneryd Tromso Ativo 115 / 120 40% 1 08.10.2026 -
Rafael Navarro St. Louis CITY SC Ativo 137 / 111 40% 2 04.10.2026 -
Matthias Seidl Rapid Wien Ativo 114 / 117 40% 1 04.10.2026 -
Victor Olatunji Real Salt Lake Ativo 125 / 129 40% 1 03.10.2026 -
Santiago Rodríguez Columbus Crew Ativo 112 / 117 40% 1 02.10.2026 -
Dejan Joveljić Seattle Sounders Ativo 135 / 130 40% 2 01.10.2026 -
Jeong Sang-Bin St. Louis CITY SC Ativo 117 / 111 40% 2 27.09.2026 -
Obilor Okeke Hammarby Ativo 111 / 121 40% 1 26.09.2026 -
Josh Sargent Toronto FC Ativo 120 / 123 40% 1 26.09.2026 -
Noah Persson Hammarby Ativo 127 / 127 40% 1 23.09.2026 -
Luca Langoni New England Revolution Ativo 122 / 136 40% 1 23.09.2026 -
Bénie Traoré New York City Ativo 128 / 132 40% 3 17.09.2026 -
Erik Flataker AIK Ativo 110 / 118 40% 1 17.09.2026 -
Ole-Didrik Blomberg Bodo/Glimt Ativo 137 / 127 40% 1 17.09.2026 -
André Luiz Sporting Kansas City Ativo 124 / 128 40% 1 16.09.2026 -
Tomás Chancalay Minnesota United FC Ativo 122 / 111 40% 1 15.09.2026 -
Paulos Abraham Hammarby Ativo 121 / 110 40% 1 12.09.2026 -
Wessam Abou Ali Columbus Crew Ativo 125 / 129 40% 1 08.09.2026 -
Kévin Denkey FC Cincinnati Ativo 132 / 114 40% 1 07.09.2026 -